Time;durP1;ratioP1;P1;durP2;ratioP2;P2;SDS_P1;SDS_P2;PMS_P1;PMS_P2;Temp;Humidity;BMP_temperature;BMP_pressure;BME280_temperature;BME280_humidity;BME280_pressure;Samples;Min_cycle;Max_cycle;Signal;HPM_P1;HPM_P2
2021/05/03 00:02:05;;;;;;;5.70;2.17;;;5.10;99.90;;;;;;5093676;28;20646;-67
2021/05/03 00:04:31;;;;;;;2.95;2.40;;;5.00;99.90;;;;;;5093622;28;20198;-66
2021/05/03 00:06:57;;;;;;;7.82;2.50;;;4.90;99.90;;;;;;5093416;28;20656;-67
2021/05/03 00:09:22;;;;;;;4.50;3.57;;;4.80;99.90;;;;;;5093284;28;20179;-67
2021/05/03 00:11:48;;;;;;;2.80;2.30;;;4.90;99.90;;;;;;5093574;28;20258;-66
2021/05/03 00:14:14;;;;;;;4.00;2.60;;;4.70;99.90;;;;;;5093445;28;20198;-66
2021/05/03 00:16:39;;;;;;;4.40;2.47;;;4.80;99.90;;;;;;5093615;28;20401;-66
2021/05/03 00:19:05;;;;;;;3.40;2.80;;;4.60;99.90;;;;;;5093285;28;20199;-66
2021/05/03 00:21:30;;;;;;;4.40;2.77;;;4.60;99.90;;;;;;5093163;28;20278;-69
2021/05/03 00:23:56;;;;;;;5.50;2.67;;;4.60;99.90;;;;;;5093144;28;20230;-67
2021/05/03 00:26:22;;;;;;;3.97;3.00;;;4.60;99.90;;;;;;5093307;28;20179;-67
2021/05/03 00:28:47;;;;;;;4.17;2.90;;;4.60;1.00;;;;;;5093194;28;20388;-67
2021/05/03 00:31:13;;;;;;;9.30;2.90;;;4.60;99.90;;;;;;5093609;28;20583;-66
2021/05/03 00:33:38;;;;;;;4.83;2.80;;;4.60;1.00;;;;;;5093459;28;20198;-67
2021/05/03 00:36:04;;;;;;;3.87;2.30;;;4.50;99.90;;;;;;5093409;28;20175;-69
2021/05/03 00:38:31;;;;;;;3.80;2.33;;;4.60;99.90;;;;;;5093645;28;20179;-67
2021/05/03 00:41:00;;;;;;;4.50;2.10;;;4.80;1.00;;;;;;5093335;28;20183;-67
2021/05/03 00:43:26;;;;;;;8.13;2.50;;;4.60;99.90;;;;;;5093648;28;20693;-67
2021/05/03 00:45:52;;;;;;;3.97;2.50;;;4.70;99.90;;;;;;5091906;28;20202;-68
2021/05/03 00:48:18;;;;;;;5.50;2.57;;;4.70;99.90;;;;;;5093428;28;20172;-68
2021/05/03 00:50:44;;;;;;;5.68;3.10;;;4.80;1.00;;;;;;5093145;28;20183;-67
2021/05/03 00:53:10;;;;;;;3.67;2.40;;;4.70;99.90;;;;;;5093055;28;20254;-67
2021/05/03 00:55:36;;;;;;;3.63;2.70;;;4.70;99.90;;;;;;5092959;28;20195;-68
2021/05/03 00:58:03;;;;;;;3.93;2.57;;;4.50;1.00;;;;;;5094775;28;20659;-67
2021/05/03 01:00:30;;;;;;;3.33;3.00;;;4.40;1.00;;;;;;5096932;28;20430;-68
2021/05/03 01:02:56;;;;;;;6.18;2.00;;;4.30;1.00;;;;;;5097188;28;20167;-67
2021/05/03 01:05:22;;;;;;;2.87;2.30;;;4.10;1.00;;;;;;5096806;28;20263;-67
2021/05/03 01:07:48;;;;;;;2.90;2.17;;;4.10;1.00;;;;;;5097093;28;20937;-68
2021/05/03 01:10:14;;;;;;;3.00;2.70;;;4.00;1.00;;;;;;5097167;28;20385;-68
2021/05/03 01:12:41;;;;;;;2.92;2.63;;;4.00;1.00;;;;;;5096721;28;20555;-67
2021/05/03 01:15:09;;;;;;;4.25;2.15;;;4.00;1.00;;;;;;5096763;28;20192;-67
2021/05/03 01:17:36;;;;;;;5.68;2.60;;;4.30;1.00;;;;;;5096616;28;20236;-68
2021/05/03 01:20:14;;;;;;;4.10;2.85;;;4.30;1.00;;;;;;5097384;28;20191;-68
2021/05/03 01:22:40;;;;;;;3.70;2.25;;;4.20;1.00;;;;;;5096506;28;20523;-68
2021/05/03 01:25:08;;;;;;;2.85;2.55;;;4.00;1.00;;;;;;5096433;28;20187;-68
2021/05/03 01:27:34;;;;;;;4.55;3.00;;;3.90;1.00;;;;;;5097102;28;20187;-68
2021/05/03 01:30:03;;;;;;;4.97;2.90;;;4.00;1.00;;;;;;5096778;28;20172;-68
2021/05/03 01:32:29;;;;;;;5.22;2.45;;;4.00;1.00;;;;;;5096172;28;20183;-68
2021/05/03 01:34:55;;;;;;;3.08;2.20;;;4.10;1.00;;;;;;5096431;28;20195;-67
2021/05/03 01:37:21;;;;;;;2.60;2.10;;;4.00;1.00;;;;;;5096121;28;20197;-67
2021/05/03 01:39:46;;;;;;;3.93;2.83;;;4.20;1.00;;;;;;5096659;28;20459;-66
2021/05/03 01:42:12;;;;;;;4.10;2.80;;;4.20;1.00;;;;;;5096114;28;20217;-67
2021/05/03 01:44:38;;;;;;;3.00;2.70;;;4.20;1.00;;;;;;5096259;28;20253;-66
2021/05/03 01:47:04;;;;;;;6.03;3.35;;;4.10;1.00;;;;;;5096263;28;20168;-68
2021/05/03 01:49:30;;;;;;;2.92;2.63;;;3.90;1.00;;;;;;5095953;28;20255;-67
2021/05/03 01:51:56;;;;;;;3.93;2.90;;;3.90;1.00;;;;;;5095877;28;20206;-67
2021/05/03 01:54:22;;;;;;;5.38;2.70;;;3.90;1.00;;;;;;5096086;28;20191;-67
2021/05/03 01:56:48;;;;;;;2.90;2.60;;;3.90;1.00;;;;;;5095832;28;20531;-67
2021/05/03 01:59:13;;;;;;;7.00;3.10;;;4.00;1.00;;;;;;5095740;28;20240;-67
2021/05/03 02:01:40;;;;;;;4.10;2.60;;;4.00;1.00;;;;;;5095559;28;20270;-67
2021/05/03 02:04:09;;;;;;;4.05;3.22;;;3.90;1.00;;;;;;5095572;28;20187;-68
2021/05/03 02:06:39;;;;;;;3.50;2.50;;;3.90;1.00;;;;;;5095943;28;20164;-67
2021/05/03 02:09:09;;;;;;;5.32;3.35;;;3.80;1.00;;;;;;5094302;28;20191;-68
2021/05/03 02:11:35;;;;;;;7.40;3.38;;;3.70;1.00;;;;;;5095837;28;20172;-68
2021/05/03 02:14:00;;;;;;;3.17;2.33;;;3.70;1.00;;;;;;5095507;28;20278;-68
2021/05/03 02:16:26;;;;;;;3.40;3.07;;;3.80;1.00;;;;;;5095510;28;20577;-68
2021/05/03 02:18:51;;;;;;;3.40;3.00;;;3.70;1.00;;;;;;5095438;28;20175;-67
2021/05/03 02:21:17;;;;;;;4.73;3.37;;;3.90;1.00;;;;;;5095573;28;20201;-67
2021/05/03 02:23:42;;;;;;;4.83;2.80;;;3.90;1.00;;;;;;5095334;28;20255;-67
2021/05/03 02:26:08;;;;;;;3.83;3.43;;;3.80;1.00;;;;;;5095266;28;20213;-66
2021/05/03 02:28:33;;;;;;;4.30;3.37;;;3.70;1.00;;;;;;5095291;28;20168;-68
2021/05/03 02:30:59;;;;;;;5.70;2.90;;;3.60;1.00;;;;;;5095265;28;20171;-67
2021/05/03 02:33:25;;;;;;;4.43;2.80;;;3.60;1.00;;;;;;5094264;28;20172;-67
2021/05/03 02:35:50;;;;;;;4.17;3.10;;;3.70;1.00;;;;;;5095101;28;20163;-67
2021/05/03 02:38:16;;;;;;;4.83;3.40;;;3.60;1.00;;;;;;5095325;28;20168;-67
2021/05/03 02:40:41;;;;;;;6.17;3.10;;;3.50;1.00;;;;;;5095235;28;20203;-67
2021/05/03 02:43:07;;;;;;;2.50;2.10;;;3.30;1.00;;;;;;5095251;28;20193;-68
2021/05/03 02:45:33;;;;;;;5.10;2.87;;;3.50;1.00;;;;;;5095093;28;20694;-68
2021/05/03 02:47:59;;;;;;;5.90;3.23;;;3.50;1.00;;;;;;5094863;28;20178;-68
2021/05/03 02:50:25;;;;;;;7.82;3.53;;;3.40;1.00;;;;;;5094796;28;20168;-68
2021/05/03 02:52:52;;;;;;;3.80;2.88;;;3.40;1.00;;;;;;5094873;28;20523;-67
2021/05/03 02:55:19;;;;;;;35.88;20.27;;;3.50;1.00;;;;;;5094527;28;20197;-68
2021/05/03 02:57:46;;;;;;;5.25;3.60;;;3.60;1.00;;;;;;5094641;28;20698;-68
2021/05/03 03:00:14;;;;;;;3.42;2.85;;;3.80;1.00;;;;;;5094931;28;20216;-68
2021/05/03 03:02:40;;;;;;;3.95;2.90;;;3.40;1.00;;;;;;5095586;28;20199;-66
2021/05/03 03:05:06;;;;;;;13.07;3.90;;;3.40;1.00;;;;;;5094469;28;20194;-68
2021/05/03 03:07:32;;;;;;;10.65;4.97;;;3.70;1.00;;;;;;5094816;28;20167;-67
2021/05/03 03:09:57;;;;;;;3.07;2.63;;;3.40;1.00;;;;;;5094593;28;20174;-68
2021/05/03 03:12:23;;;;;;;4.37;3.33;;;3.20;1.00;;;;;;5094493;28;20193;-68
2021/05/03 03:14:49;;;;;;;4.60;3.17;;;3.10;1.00;;;;;;5094356;28;20184;-68
2021/05/03 03:17:15;;;;;;;5.37;3.37;;;3.00;1.00;;;;;;5094376;28;20163;-68
2021/05/03 03:19:41;;;;;;;6.37;3.97;;;2.90;1.00;;;;;;5094401;28;20202;-68
2021/05/03 03:22:08;;;;;;;5.22;3.83;;;2.90;1.00;;;;;;5094018;28;20445;-68
2021/05/03 03:24:33;;;;;;;4.30;3.47;;;2.90;1.00;;;;;;5094178;28;20183;-68
2021/05/03 03:27:00;;;;;;;6.90;4.37;;;2.90;1.00;;;;;;5094117;28;20218;-68
2021/05/03 03:29:25;;;;;;;4.95;3.58;;;2.90;1.00;;;;;;5094113;28;20254;-68
2021/05/03 03:31:51;;;;;;;4.73;3.50;;;3.10;1.00;;;;;;5094042;28;20250;-67
2021/05/03 03:34:17;;;;;;;4.83;3.10;;;3.10;1.00;;;;;;5094215;28;20221;-68
2021/05/03 03:36:42;;;;;;;6.40;3.53;;;3.00;1.00;;;;;;5093858;28;20163;-68
2021/05/03 03:39:09;;;;;;;6.47;3.10;;;2.90;1.00;;;;;;5093847;28;20216;-68
2021/05/03 03:41:34;;;;;;;5.65;3.78;;;2.90;1.00;;;;;;5093753;28;20606;-68
2021/05/03 03:44:01;;;;;;;6.27;3.50;;;2.80;1.00;;;;;;5093789;28;20179;-68
2021/05/03 03:46:27;;;;;;;7.80;4.35;;;2.90;1.00;;;;;;5093746;28;20168;-67
2021/05/03 03:48:53;;;;;;;5.17;3.83;;;2.70;1.00;;;;;;5093860;28;20172;-67
2021/05/03 03:51:18;;;;;;;3.80;3.10;;;2.80;1.00;;;;;;5093613;28;20171;-67
2021/05/03 03:53:44;;;;;;;9.40;3.70;;;2.80;1.00;;;;;;5093812;28;20221;-67
2021/05/03 03:56:12;;;;;;;9.10;4.00;;;3.10;1.00;;;;;;5093597;28;20195;-67
2021/05/03 03:58:38;;;;;;;6.72;3.92;;;2.80;1.00;;;;;;5094051;28;20228;-67
2021/05/03 04:01:03;;;;;;;9.13;3.38;;;2.70;1.00;;;;;;5093701;28;20227;-67
2021/05/03 04:03:29;;;;;;;7.97;3.97;;;2.60;1.00;;;;;;5093482;28;20187;-67
2021/05/03 04:08:26;;;;;;;5.33;3.77;;;2.80;1.00;;;;;;5093280;28;20175;-67
2021/05/03 04:11:15;;;;;;;5.93;4.47;;;2.70;1.00;;;;;;5093516;28;20386;-67
2021/05/03 04:26:34;;;;;;;9.33;3.27;;;3.00;1.00;;;;;;5093357;28;20647;-67
2021/05/03 04:29:00;;;;;;;4.97;3.80;;;2.70;1.00;;;;;;5092984;28;20379;-67
2021/05/03 04:31:25;;;;;;;15.03;7.40;;;2.70;1.00;;;;;;5093151;28;20535;-67
2021/05/03 04:33:52;;;;;;;12.83;4.90;;;2.90;1.00;;;;;;5092261;28;20187;-67
2021/05/03 04:36:17;;;;;;;9.40;4.00;;;3.30;1.00;;;;;;5092989;28;20171;-67
2021/05/03 04:38:43;;;;;;;6.40;3.03;;;3.40;1.00;;;;;;5092842;28;20171;-68
2021/05/03 04:41:09;;;;;;;161.93;20.30;;;3.40;1.00;;;;;;5092765;28;20852;-67
2021/05/03 04:43:36;;;;;;;17.70;5.77;;;3.10;1.00;;;;;;5092686;28;20400;-67
2021/05/03 04:46:02;;;;;;;18.00;4.13;;;3.20;1.00;;;;;;5092747;28;20163;-67
2021/05/03 04:48:28;;;;;;;303.10;34.03;;;3.50;1.00;;;;;;5093115;28;20166;-67
2021/05/03 04:50:55;;;;;;;19.90;4.53;;;3.60;1.00;;;;;;5093054;28;20179;-67
2021/05/03 04:53:21;;;;;;;19.77;6.53;;;3.60;1.00;;;;;;5092748;28;20167;-68
2021/05/03 04:55:47;;;;;;;14.75;5.30;;;3.60;1.00;;;;;;5092937;28;20260;-67
2021/05/03 04:58:13;;;;;;;105.90;16.67;;;3.70;1.00;;;;;;5092893;28;20191;-67
2021/05/03 05:00:39;;;;;;;31.15;5.85;;;3.90;1.00;;;;;;5093151;28;20660;-67
2021/05/03 05:03:05;;;;;;;10.30;5.87;;;4.00;1.00;;;;;;5092647;28;20195;-67
2021/05/03 05:05:30;;;;;;;11.00;5.83;;;4.30;1.00;;;;;;5092299;28;20198;-67
2021/05/03 05:07:56;;;;;;;8.50;4.47;;;4.20;1.00;;;;;;5093161;28;20190;-67
2021/05/03 05:10:22;;;;;;;34.97;7.40;;;4.20;1.00;;;;;;5092470;28;20174;-68
2021/05/03 05:12:49;;;;;;;12.90;4.63;;;4.20;1.00;;;;;;5092568;28;20405;-67
2021/05/03 05:15:15;;;;;;;17.38;4.70;;;4.20;1.00;;;;;;5092380;28;20602;-68
2021/05/03 05:17:40;;;;;;;6.80;4.43;;;4.40;1.00;;;;;;5092373;28;20167;-68
2021/05/03 05:20:06;;;;;;;12.50;5.70;;;4.80;1.00;;;;;;5092611;28;20485;-68
2021/05/03 05:22:32;;;;;;;54.50;9.10;;;5.10;1.00;;;;;;5092250;28;20292;-68
2021/05/03 05:25:00;;;;;;;14.80;6.90;;;5.20;1.00;;;;;;5092122;28;20179;-68
2021/05/03 05:27:25;;;;;;;8.57;5.40;;;5.20;1.00;;;;;;5090777;28;20190;-68
2021/05/03 05:29:51;;;;;;;19.13;4.87;;;5.40;1.00;;;;;;5092141;28;20532;-68
2021/05/03 05:32:16;;;;;;;8.80;5.60;;;5.50;1.00;;;;;;5092080;28;20632;-68
2021/05/03 05:34:42;;;;;;;14.50;6.40;;;5.70;99.90;;;;;;5091762;28;20218;-68
2021/05/03 05:37:07;;;;;;;8.83;5.40;;;5.80;99.90;;;;;;5091458;28;20164;-68
2021/05/03 05:39:33;;;;;;;12.37;5.67;;;5.80;99.90;;;;;;5091926;28;20313;-68
2021/05/03 05:41:59;;;;;;;7.70;5.90;;;6.00;99.90;;;;;;5092208;28;20302;-68
2021/05/03 05:44:24;;;;;;;7.43;5.53;;;6.20;99.90;;;;;;5094189;28;20183;-68
2021/05/03 05:46:50;;;;;;;13.20;6.73;;;6.20;99.90;;;;;;5095876;28;20174;-68
2021/05/03 05:49:15;;;;;;;19.63;7.20;;;6.40;99.90;;;;;;5095544;28;20174;-68
2021/05/03 05:51:43;;;;;;;14.00;6.30;;;6.50;99.90;;;;;;5095404;28;20238;-68
2021/05/03 05:54:08;;;;;;;31.25;6.97;;;6.60;99.90;;;;;;5095286;28;20191;-68
2021/05/03 05:56:34;;;;;;;24.83;7.10;;;6.60;99.90;;;;;;5095334;28;20701;-68
2021/05/03 05:58:59;;;;;;;15.63;6.90;;;6.60;99.90;;;;;;5095688;28;20171;-67
2021/05/03 06:01:27;;;;;;;71.07;12.20;;;6.90;99.90;;;;;;5094997;28;20199;-67
2021/05/03 06:03:55;;;;;;;15.50;6.68;;;6.90;99.90;;;;;;5094687;28;20180;-68
2021/05/03 06:06:21;;;;;;;11.60;6.10;;;7.00;99.90;;;;;;5095165;28;20195;-67
2021/05/03 06:08:47;;;;;;;10.33;5.60;;;7.20;99.90;;;;;;5095266;28;20237;-69
2021/05/03 06:11:13;;;;;;;10.48;4.97;;;7.30;99.90;;;;;;5095194;28;20236;-67
2021/05/03 06:13:39;;;;;;;9.70;6.10;;;7.20;99.90;;;;;;5095067;28;20196;-67
2021/05/03 06:16:04;;;;;;;8.57;5.90;;;7.30;99.90;;;;;;5095009;28;20816;-67
2021/05/03 06:18:30;;;;;;;19.60;8.07;;;7.40;99.90;;;;;;5095106;28;20262;-67
2021/05/03 06:20:55;;;;;;;14.37;6.60;;;7.50;99.90;;;;;;5094611;28;20191;-66
2021/05/03 06:23:21;;;;;;;9.60;5.67;;;7.50;99.90;;;;;;5094969;28;20163;-68
2021/05/03 06:25:46;;;;;;;16.47;6.33;;;7.50;99.90;;;;;;5095228;28;20293;-67
2021/05/03 06:28:12;;;;;;;16.00;5.43;;;7.50;99.90;;;;;;5094934;28;20164;-67
2021/05/03 06:30:38;;;;;;;7.00;5.17;;;7.10;99.90;;;;;;5094889;28;20171;-67
2021/05/03 06:33:03;;;;;;;9.53;6.00;;;7.10;99.90;;;;;;5095104;28;20191;-67
2021/05/03 06:35:30;;;;;;;35.37;8.30;;;7.10;99.90;;;;;;5094884;28;20424;-67
2021/05/03 06:37:56;;;;;;;11.45;6.00;;;7.00;99.90;;;;;;5094796;28;20632;-69
2021/05/03 06:40:22;;;;;;;22.33;6.30;;;7.40;99.90;;;;;;5094804;28;20291;-67
2021/05/03 06:42:49;;;;;;;24.55;7.97;;;7.50;99.90;;;;;;5094683;28;20213;-68
2021/05/03 06:45:17;;;;;;;266.63;30.35;;;7.30;99.90;;;;;;5094405;28;20215;-67
2021/05/03 06:47:44;;;;;;;24.27;8.48;;;7.40;99.90;;;;;;5094191;28;20532;-68
2021/05/03 06:50:11;;;;;;;9.80;5.75;;;7.40;99.90;;;;;;5094914;28;20175;-67
2021/05/03 06:52:38;;;;;;;10.10;6.78;;;7.40;99.90;;;;;;5094683;28;20250;-67
2021/05/03 06:55:05;;;;;;;27.77;7.68;;;7.70;99.90;;;;;;5093547;28;20531;-67
2021/05/03 06:57:30;;;;;;;9.25;5.70;;;7.90;99.90;;;;;;5094142;28;20164;-67
2021/05/03 06:59:56;;;;;;;10.07;5.80;;;8.00;99.90;;;;;;5094262;28;20193;-67
2021/05/03 07:02:23;;;;;;;8.10;5.60;;;8.10;99.90;;;;;;5094205;28;20235;-67
2021/05/03 07:04:49;;;;;;;24.05;7.80;;;8.10;99.90;;;;;;5094287;28;20189;-66
2021/05/03 07:07:14;;;;;;;7.83;5.27;;;7.90;99.90;;;;;;5092672;28;20513;-66
2021/05/03 07:09:43;;;;;;;13.20;5.70;;;8.00;99.90;;;;;;5094070;28;20184;-67
2021/05/03 07:12:09;;;;;;;8.32;5.85;;;7.90;99.90;;;;;;5094447;28;20572;-67
2021/05/03 07:14:36;;;;;;;7.50;5.25;;;8.00;99.90;;;;;;5094039;28;20195;-67
2021/05/03 07:17:04;;;;;;;10.20;5.80;;;7.90;99.90;;;;;;5094257;28;20216;-66
2021/05/03 07:19:34;;;;;;;8.07;5.32;;;7.90;99.90;;;;;;5094197;28;20221;-68
2021/05/03 07:22:04;;;;;;;84.88;9.77;;;7.90;99.90;;;;;;5094251;28;20586;-68
2021/05/03 07:24:30;;;;;;;9.60;7.05;;;8.10;99.90;;;;;;5093716;28;20187;-66
2021/05/03 07:26:56;;;;;;;7.50;5.57;;;8.00;99.90;;;;;;5093898;28;20665;-67
2021/05/03 07:29:21;;;;;;;6.30;5.70;;;8.30;99.90;;;;;;5093676;28;20562;-68
2021/05/03 07:31:47;;;;;;;17.90;8.30;;;8.60;99.90;;;;;;5093943;28;20167;-67
2021/05/03 07:34:14;;;;;;;9.40;5.60;;;8.50;99.90;;;;;;5092314;28;20748;-67
2021/05/03 07:36:40;;;;;;;7.00;5.35;;;8.70;99.90;;;;;;5093893;28;20215;-67
2021/05/03 07:39:06;;;;;;;13.70;9.10;;;8.80;99.90;;;;;;5093383;28;20199;-67
2021/05/03 07:41:35;;;;;;;14.23;5.70;;;9.00;99.90;;;;;;5093434;28;20249;-67
2021/05/03 07:44:02;;;;;;;11.57;4.22;;;8.90;99.90;;;;;;5093539;28;20199;-67
2021/05/03 07:46:28;;;;;;;6.85;4.78;;;9.00;99.90;;;;;;5091982;28;20171;-65
2021/05/03 07:48:56;;;;;;;10.10;5.70;;;9.00;99.90;;;;;;5093414;28;20168;-67
2021/05/03 07:51:21;;;;;;;7.90;4.75;;;9.10;99.90;;;;;;5093807;28;20173;-67
2021/05/03 07:53:47;;;;;;;16.80;5.20;;;9.20;99.90;;;;;;5092914;28;20207;-66
2021/05/03 07:56:16;;;;;;;5.23;4.00;;;9.30;99.90;;;;;;5093290;28;20717;-58
2021/05/03 07:58:42;;;;;;;3.92;2.58;;;9.50;99.90;;;;;;5093186;28;20811;-65
2021/05/03 08:01:09;;;;;;;3.57;3.23;;;11.50;1.00;;;;;;5092996;28;20211;-65
2021/05/03 08:03:39;;;;;;;6.50;5.13;;;12.60;1.00;;;;;;5092665;28;20393;-68
2021/05/03 08:06:06;;;;;;;6.13;4.23;;;11.40;99.90;;;;;;5093379;28;20367;-68
2021/05/03 08:08:32;;;;;;;6.20;3.93;;;10.60;99.90;;;;;;5092187;28;20424;-67
2021/05/03 08:10:58;;;;;;;9.10;4.37;;;10.50;99.90;;;;;;5092822;28;20492;-67
2021/05/03 08:13:26;;;;;;;7.70;3.50;;;10.50;99.90;;;;;;5093255;28;20887;-69
2021/05/03 08:15:52;;;;;;;10.50;3.60;;;10.30;99.90;;;;;;5092834;28;20413;-68
2021/05/03 08:18:18;;;;;;;5.40;4.07;;;10.60;99.90;;;;;;5093033;28;20440;-68
2021/05/03 08:20:44;;;;;;;5.33;3.80;;;10.40;99.90;;;;;;5092297;28;20409;-68
2021/05/03 08:23:10;;;;;;;6.40;4.40;;;10.50;99.90;;;;;;5092269;28;20254;-68
2021/05/03 08:25:38;;;;;;;4.80;3.40;;;10.80;99.90;;;;;;5092692;28;20170;-68
2021/05/03 08:28:04;;;;;;;8.47;3.97;;;10.60;99.90;;;;;;5093217;28;20409;-68
2021/05/03 08:30:30;;;;;;;4.13;2.90;;;10.50;99.90;;;;;;5092557;28;20416;-68
2021/05/03 08:32:55;;;;;;;5.40;4.13;;;10.80;99.90;;;;;;5092655;28;20173;-68
2021/05/03 08:35:21;;;;;;;8.30;3.70;;;10.90;99.90;;;;;;5092747;28;20269;-67
2021/05/03 08:37:46;;;;;;;10.13;5.80;;;11.10;99.90;;;;;;5092326;28;20212;-69
2021/05/03 08:40:14;;;;;;;5.70;3.67;;;11.00;99.90;;;;;;5092573;28;20209;-67
2021/05/03 08:42:41;;;;;;;8.30;3.87;;;11.00;99.90;;;;;;5092673;28;20191;-67
2021/05/03 08:45:08;;;;;;;21.23;5.27;;;11.40;99.90;;;;;;5091248;28;20433;-67
2021/05/03 08:47:36;;;;;;;4.47;3.43;;;11.50;99.90;;;;;;5091911;28;20463;-68
2021/05/03 08:50:15;;;;;;;5.27;3.83;;;10.80;99.90;;;;;;5092385;28;20492;-68
2021/05/03 08:52:46;;;;;;;4.77;3.93;;;11.40;99.90;;;;;;5092537;28;20390;-68
2021/05/03 08:55:13;;;;;;;8.17;4.60;;;11.30;99.90;;;;;;5092573;28;20986;-68
2021/05/03 08:57:40;;;;;;;6.33;5.40;;;11.70;99.90;;;;;;5092492;28;20459;-68
2021/05/03 09:00:12;;;;;;;7.93;3.57;;;11.80;99.90;;;;;;5092300;28;20405;-68
2021/05/03 09:02:39;;;;;;;8.40;4.73;;;11.60;99.90;;;;;;5092637;28;20433;-68
2021/05/03 09:05:06;;;;;;;6.87;3.57;;;11.70;99.90;;;;;;5092010;28;20516;-69
2021/05/03 09:07:32;;;;;;;3.53;3.20;;;11.80;99.90;;;;;;5092045;28;20788;-68
2021/05/03 09:09:57;;;;;;;7.00;5.10;;;11.50;99.90;;;;;;5092346;28;20412;-67
2021/05/03 09:12:24;;;;;;;7.17;3.60;;;12.00;99.90;;;;;;5092365;28;20172;-67
2021/05/03 09:14:56;;;;;;;6.50;3.63;;;11.70;99.90;;;;;;5091959;28;20203;-67
2021/05/03 09:17:23;;;;;;;6.87;3.43;;;12.30;99.90;;;;;;5093033;28;20386;-66
2021/05/03 09:19:49;;;;;;;18.87;9.47;;;12.80;99.90;;;;;;5095654;28;20751;-67
2021/05/03 09:22:25;;;;;;;8.10;3.30;;;12.70;99.90;;;;;;5096287;28;20456;-67
2021/05/03 09:24:51;;;;;;;7.23;3.40;;;12.90;99.90;;;;;;5095957;28;20413;-67
2021/05/03 09:27:20;;;;;;;11.03;4.83;;;12.70;99.90;;;;;;5097122;28;20439;-67
2021/05/03 09:29:48;;;;;;;9.40;3.60;;;12.80;99.90;;;;;;5095205;28;20412;-66
2021/05/03 09:32:18;;;;;;;10.00;3.20;;;12.90;99.90;;;;;;5095905;28;20406;-69
2021/05/03 09:34:46;;;;;;;8.33;4.20;;;13.20;99.90;;;;;;5095887;28;20407;-67
2021/05/03 09:37:17;;;;;;;3.67;2.83;;;13.20;99.90;;;;;;5095696;28;20416;-66
2021/05/03 09:39:50;;;;;;;4.30;3.33;;;13.20;99.90;;;;;;5095607;28;20409;-68
2021/05/03 09:42:15;;;;;;;11.83;3.80;;;13.00;99.90;;;;;;5095467;28;20437;-68
2021/05/03 09:45:03;;;;;;;9.13;4.20;;;13.50;99.90;;;;;;5095532;28;20431;-68
2021/05/03 09:47:29;;;;;;;4.53;3.17;;;14.10;99.90;;;;;;5095691;28;20159;-68
2021/05/03 09:49:55;;;;;;;4.17;3.07;;;14.70;99.90;;;;;;5094366;28;20406;-69
2021/05/03 09:52:21;;;;;;;4.27;3.60;;;15.00;99.90;;;;;;5095368;28;20171;-68
2021/05/03 09:54:46;;;;;;;7.97;3.40;;;14.50;99.90;;;;;;5095692;28;20421;-68
2021/05/03 09:57:13;;;;;;;8.03;3.67;;;14.20;99.90;;;;;;5095656;28;20175;-68
2021/05/03 09:59:48;;;;;;;7.97;4.20;;;14.20;99.90;;;;;;5095427;28;20177;-67
2021/05/03 10:02:36;;;;;;;4.97;3.60;;;13.60;99.90;;;;;;5095388;28;20516;-68
2021/05/03 10:07:35;;;;;;;8.23;4.13;;;13.80;99.90;;;;;;5095043;28;20444;-68
2021/05/03 10:10:13;;;;;;;5.57;4.00;;;14.20;99.90;;;;;;5095588;28;20895;-68
2021/05/03 10:12:39;;;;;;;5.80;3.60;;;14.40;99.90;;;;;;5095372;28;20409;-67
2021/05/03 10:15:08;;;;;;;8.03;3.97;;;14.20;99.90;;;;;;5095452;28;20426;-67
2021/05/03 10:17:36;;;;;;;7.13;4.23;;;14.10;99.90;;;;;;5095412;28;20766;-68
2021/05/03 10:20:03;;;;;;;8.93;4.30;;;13.90;99.90;;;;;;5095207;28;20405;-68
2021/05/03 10:22:29;;;;;;;4.80;4.10;;;14.30;99.90;;;;;;5094734;28;20456;-68
2021/05/03 10:24:58;;;;;;;14.43;4.27;;;14.60;99.90;;;;;;5095227;28;20510;-68
2021/05/03 10:27:25;;;;;;;8.40;5.33;;;14.90;99.90;;;;;;5095244;28;20406;-68
2021/05/03 10:30:09;;;;;;;11.33;4.83;;;14.90;99.90;;;;;;5094226;28;20975;-68
2021/05/03 10:32:35;;;;;;;15.87;5.40;;;15.00;99.90;;;;;;5094556;28;20919;-68
2021/05/03 10:35:03;;;;;;;15.93;4.23;;;15.10;99.90;;;;;;5094603;28;20427;-67
2021/05/03 10:37:29;;;;;;;6.80;3.67;;;14.90;99.90;;;;;;5094783;28;20411;-67
2021/05/03 10:39:59;;;;;;;5.60;3.70;;;15.00;99.90;;;;;;5095175;28;20428;-67
2021/05/03 10:42:25;;;;;;;6.90;4.20;;;14.80;99.90;;;;;;5094730;28;20293;-67
2021/05/03 10:45:18;;;;;;;9.97;5.37;;;15.20;99.90;;;;;;5092781;28;20430;-66
2021/05/03 10:47:54;;;;;;;7.53;3.67;;;15.50;99.90;;;;;;5094608;28;20388;-69
2021/05/03 10:50:34;;;;;;;6.50;3.70;;;14.60;99.90;;;;;;5094529;28;20437;-67
2021/05/03 10:53:19;;;;;;;10.67;4.30;;;14.80;99.90;;;;;;5094555;28;20395;-66
2021/05/03 10:55:56;;;;;;;8.03;4.20;;;15.20;99.90;;;;;;5094260;28;20394;-66
2021/05/03 10:58:22;;;;;;;6.13;4.10;;;15.60;99.90;;;;;;5094380;28;20495;-66
2021/05/03 11:01:11;;;;;;;10.83;4.87;;;15.50;99.90;;;;;;5094130;28;20406;-66
2021/05/03 11:03:55;;;;;;;11.33;4.63;;;14.80;99.90;;;;;;5094597;28;20513;-67
2021/05/03 11:06:36;;;;;;;4.93;4.10;;;14.60;99.90;;;;;;5094322;28;20906;-67
2021/05/03 11:09:36;;;;;;;20.27;5.73;;;14.70;99.90;;;;;;5094059;28;20419;-65
2021/05/03 11:12:12;;;;;;;7.70;4.07;;;14.50;99.90;;;;;;5094317;28;20390;-67
2021/05/03 11:14:41;;;;;;;5.30;4.60;;;14.50;99.90;;;;;;5093994;28;20491;-67
2021/05/03 11:17:12;;;;;;;11.77;5.20;;;14.60;99.90;;;;;;5094044;28;20813;-67
2021/05/03 11:22:09;;;;;;;8.53;4.17;;;14.50;99.90;;;;;;5093926;28;20490;-67
2021/05/03 11:24:45;;;;;;;8.57;4.27;;;14.80;99.90;;;;;;5094238;28;20570;-67
2021/05/03 11:27:18;;;;;;;5.07;4.60;;;14.70;99.90;;;;;;5094132;28;20949;-68
2021/05/03 11:29:59;;;;;;;6.97;5.13;;;14.80;99.90;;;;;;5093609;28;20428;-67
2021/05/03 11:32:36;;;;;;;12.57;5.63;;;15.00;99.90;;;;;;5093452;28;20386;-67
2021/05/03 11:35:09;;;;;;;146.33;16.47;;;15.00;99.90;;;;;;5093757;28;20441;-66
2021/05/03 11:37:52;;;;;;;12.40;5.03;;;15.10;99.90;;;;;;5093769;28;20409;-67
2021/05/03 11:45:29;;;;;;;102.87;15.63;;;15.50;99.90;;;;;;5093394;28;20262;-66
2021/05/03 11:47:57;;;;;;;7.90;3.50;;;15.50;99.90;;;;;;5093405;28;20403;-67
2021/05/03 11:50:24;;;;;;;3.63;3.20;;;15.60;99.90;;;;;;5092110;28;20406;-67
2021/05/03 11:52:50;;;;;;;12.17;3.43;;;15.80;99.90;;;;;;5092861;28;20409;-68
2021/05/03 11:55:22;;;;;;;4.77;3.47;;;16.50;99.90;;;;;;5092818;28;20434;-67
2021/05/03 11:57:48;;;;;;;12.13;3.93;;;16.70;99.90;;;;;;5093630;28;20869;-67
2021/05/03 12:00:22;;;;;;;5.17;4.20;;;16.70;99.90;;;;;;5093251;28;20904;-66
2021/05/03 12:03:00;;;;;;;44.37;5.73;;;16.30;99.90;;;;;;5093056;28;20448;-68
2021/05/03 12:05:26;;;;;;;3.93;3.40;;;15.90;99.90;;;;;;5093279;28;20429;-67
2021/05/03 12:07:51;;;;;;;7.40;5.50;;;15.70;99.90;;;;;;5092780;28;20388;-67
2021/05/03 12:10:19;;;;;;;10.47;5.53;;;15.10;99.90;;;;;;5093444;28;20150;-67
2021/05/03 12:12:53;;;;;;;5.87;3.83;;;15.20;99.90;;;;;;5092696;28;20170;-67
2021/05/03 12:15:26;;;;;;;7.93;3.17;;;15.00;99.90;;;;;;5092946;28;20765;-67
2021/05/03 12:17:57;;;;;;;7.03;4.03;;;14.80;99.90;;;;;;5093400;28;20399;-66
2021/05/03 12:20:25;;;;;;;11.27;5.90;;;14.80;99.90;;;;;;5093243;28;20464;-68
2021/05/03 12:23:02;;;;;;;13.77;4.47;;;14.70;99.90;;;;;;5092697;28;20441;-66
2021/05/03 12:25:52;;;;;;;5.30;3.63;;;14.60;99.90;;;;;;5092815;28;20486;-67
2021/05/03 12:28:26;;;;;;;5.90;3.83;;;14.60;99.90;;;;;;5092943;28;20390;-68
2021/05/03 12:30:57;;;;;;;4.67;3.80;;;14.60;99.90;;;;;;5092905;28;20381;-67
2021/05/03 12:33:23;;;;;;;5.40;4.37;;;14.90;99.90;;;;;;5092827;28;20790;-67
2021/05/03 12:35:50;;;;;;;31.73;6.70;;;15.80;99.90;;;;;;5091646;28;20490;-67
2021/05/03 12:38:24;;;;;;;4.67;3.83;;;15.70;99.90;;;;;;5092354;28;20448;-67
2021/05/03 12:40:50;;;;;;;20.70;5.10;;;15.80;99.90;;;;;;5092686;28;20383;-67
2021/05/03 12:43:22;;;;;;;10.43;4.30;;;15.70;99.90;;;;;;5092476;28;20482;-66
2021/05/03 12:46:04;;;;;;;6.70;3.80;;;15.80;99.90;;;;;;5092762;28;20374;-68
2021/05/03 12:48:44;;;;;;;13.30;4.43;;;15.90;99.90;;;;;;5092436;28;20388;-66
2021/05/03 12:51:24;;;;;;;23.37;6.00;;;16.20;99.90;;;;;;5092648;28;20771;-66
2021/05/03 12:54:40;;;;;;;14.83;4.60;;;15.90;99.90;;;;;;5093735;28;20425;-66
2021/05/03 12:57:11;;;;;;;6.27;4.60;;;15.90;99.90;;;;;;5094099;28;20464;-66
2021/05/03 13:04:57;;;;;;;3.33;3.03;;;15.40;99.90;;;;;;5096879;28;20451;-66
2021/05/03 13:30:23;;;;;;;11.93;8.67;;;16.20;99.90;;;;;;5096862;28;20387;-66
2021/05/03 13:32:49;;;;;;;8.33;4.80;;;16.00;99.90;;;;;;5096297;28;20799;-68
2021/05/03 13:35:15;;;;;;;6.73;3.50;;;16.00;99.90;;;;;;5095830;28;20462;-67
2021/05/03 13:37:41;;;;;;;5.87;3.00;;;15.80;99.90;;;;;;5096425;28;20429;-70
2021/05/03 13:40:07;;;;;;;8.90;3.10;;;16.00;99.90;;;;;;5094479;28;20171;-67
2021/05/03 13:42:33;;;;;;;5.40;3.53;;;15.60;99.90;;;;;;5096127;28;20842;-67
2021/05/03 13:44:59;;;;;;;4.97;3.20;;;15.50;99.90;;;;;;5096340;28;20442;-70
2021/05/03 13:47:24;;;;;;;6.60;3.50;;;15.40;99.90;;;;;;5094816;28;20439;-69
2021/05/03 13:49:50;;;;;;;6.77;3.90;;;15.30;99.90;;;;;;5096199;28;20167;-68
2021/05/03 13:52:15;;;;;;;9.63;3.40;;;15.20;99.90;;;;;;5095675;28;20547;-68